Time;durP1;ratioP1;P1;durP2;ratioP2;P2;SDS_P1;SDS_P2;PMS_P1;PMS_P2;Temp;Humidity;BMP_temperature;BMP_pressure;BME280_temperature;BME280_humidity;BME280_pressure;Samples;Min_cycle;Max_cycle;Signal;HPM_P1;HPM_P2
2023/01/17 00:01:47;;;;;;;0.70;0.10;;;3.90;90.50;;;;;;5052901;28;20059;-80
2023/01/17 00:09:55;;;;;;;2.00;0.20;;;3.90;90.80;;;;;;5030808;28;20040;-79
2023/01/17 00:12:25;;;;;;;1.85;0.30;;;3.90;90.90;;;;;;5040743;28;20288;-79
2023/01/17 00:14:54;;;;;;;2.13;0.20;;;3.90;91.00;;;;;;5026512;28;20064;-80
2023/01/17 00:17:22;;;;;;;2.45;0.20;;;3.90;91.00;;;;;;5027807;28;20571;-80
2023/01/17 01:35:12;;;;;;;5.13;0.30;;;3.10;87.70;;;;;;5037199;28;20129;-79
2023/01/17 01:37:40;;;;;;;2.93;0.20;;;3.10;88.00;;;;;;5028852;28;20149;-80
2023/01/17 01:40:08;;;;;;;0.22;0.00;;;3.10;88.10;;;;;;5028571;28;20898;-80
2023/01/17 01:42:36;;;;;;;3.25;0.30;;;3.00;88.40;;;;;;5012034;28;20045;-80
2023/01/17 01:45:15;;;;;;;2.95;0.20;;;3.00;88.60;;;;;;5031815;28;20050;-80
2023/01/17 01:47:42;;;;;;;4.07;0.17;;;3.00;88.60;;;;;;5046129;28;20081;-80
2023/01/17 01:50:11;;;;;;;1.93;0.10;;;3.00;88.60;;;;;;5041282;28;20136;-80
2023/01/17 01:52:43;;;;;;;2.38;0.10;;;3.00;88.80;;;;;;5030527;28;20257;-80
2023/01/17 01:55:13;;;;;;;2.35;0.20;;;3.00;88.80;;;;;;5038168;28;20153;-80
2023/01/17 01:57:44;;;;;;;1.75;0.17;;;3.00;88.90;;;;;;5027676;28;20055;-80
2023/01/17 02:00:16;;;;;;;3.08;0.30;;;3.00;89.00;;;;;;5049367;28;20057;-79
2023/01/17 02:02:45;;;;;;;1.63;0.13;;;2.90;88.90;;;;;;5048262;28;20479;-80
2023/01/17 02:05:14;;;;;;;4.00;0.22;;;2.90;88.80;;;;;;5049424;28;20730;-80
2023/01/17 02:07:48;;;;;;;1.27;0.10;;;2.90;88.70;;;;;;5043763;28;20134;-81
2023/01/17 02:10:16;;;;;;;1.55;0.10;;;2.80;88.60;;;;;;5052283;28;20053;-80
2023/01/17 02:12:44;;;;;;;1.23;0.15;;;2.80;88.60;;;;;;5040176;28;20060;-80
2023/01/17 02:15:11;;;;;;;3.17;0.20;;;2.80;88.30;;;;;;5039790;28;20084;-80
2023/01/17 02:17:49;;;;;;;1.30;0.10;;;2.70;88.60;;;;;;5049286;28;20285;-80
2023/01/17 02:20:42;;;;;;;1.73;0.10;;;2.60;88.70;;;;;;5027863;28;20046;-80
2023/01/17 02:23:51;;;;;;;2.05;0.30;;;2.60;88.90;;;;;;5028591;28;20057;-79
2023/01/17 02:26:41;;;;;;;1.15;0.10;;;2.50;89.00;;;;;;5011480;28;20064;-80
2023/01/17 02:29:34;;;;;;;0.27;0.00;;;2.50;89.10;;;;;;5031646;28;20053;-79
2023/01/17 02:32:09;;;;;;;2.75;0.10;;;2.50;89.30;;;;;;5044075;28;20339;-79
2023/01/17 02:34:44;;;;;;;2.88;0.10;;;2.50;89.10;;;;;;5036181;28;20698;-80
2023/01/17 02:37:17;;;;;;;2.17;0.10;;;2.50;89.00;;;;;;5031757;28;20112;-80
2023/01/17 02:39:53;;;;;;;4.75;0.45;;;2.50;88.60;;;;;;5055905;28;20533;-79
2023/01/17 02:42:25;;;;;;;1.20;0.20;;;2.50;88.60;;;;;;5049164;28;20575;-79
2023/01/17 02:44:52;;;;;;;2.67;0.25;;;2.50;88.40;;;;;;5061566;28;20904;-79
2023/01/17 02:47:24;;;;;;;4.35;0.20;;;2.50;88.40;;;;;;5047213;28;20128;-79
2023/01/17 02:49:52;;;;;;;1.10;0.10;;;2.60;88.00;;;;;;5041274;28;20690;-80
2023/01/17 02:52:35;;;;;;;4.43;0.20;;;2.60;87.90;;;;;;5055722;28;20053;-79
2023/01/17 02:55:19;;;;;;;4.10;0.30;;;2.60;88.00;;;;;;5027266;28;20060;-79
2023/01/17 02:58:07;;;;;;;4.68;0.20;;;2.60;88.20;;;;;;5037474;28;20257;-79
2023/01/17 03:00:43;;;;;;;1.55;0.20;;;2.60;88.30;;;;;;5063575;28;20045;-79
2023/01/17 03:03:19;;;;;;;0.50;0.03;;;2.60;88.40;;;;;;5044808;28;20054;-80
2023/01/17 03:05:51;;;;;;;1.95;0.20;;;2.60;88.60;;;;;;5010426;28;20085;-79
2023/01/17 03:08:18;;;;;;;4.80;0.50;;;2.70;88.60;;;;;;5027212;28;20147;-79
2023/01/17 03:10:46;;;;;;;3.33;0.25;;;2.70;88.60;;;;;;5041037;28;20772;-79
2023/01/17 03:13:13;;;;;;;2.65;0.10;;;2.70;88.60;;;;;;5045206;28;20053;-78
2023/01/17 03:15:40;;;;;;;1.25;0.10;;;2.70;88.60;;;;;;5056051;28;20423;-79
2023/01/17 03:18:11;;;;;;;2.78;0.20;;;2.70;88.60;;;;;;5039653;28;20042;-78
2023/01/17 03:20:39;;;;;;;0.83;0.10;;;2.70;88.60;;;;;;5040117;28;20061;-79
2023/01/17 03:23:06;;;;;;;1.42;0.10;;;2.70;88.40;;;;;;5055039;28;20320;-80
2023/01/17 03:25:33;;;;;;;0.82;0.10;;;2.60;88.40;;;;;;5040380;28;20076;-79
2023/01/17 03:28:00;;;;;;;2.63;0.10;;;2.60;88.40;;;;;;5034677;28;20052;-79
2023/01/17 03:30:27;;;;;;;1.92;0.20;;;2.60;88.40;;;;;;5031345;28;20057;-79
2023/01/17 03:32:54;;;;;;;4.10;0.37;;;2.50;88.50;;;;;;5037119;28;20553;-80
2023/01/17 03:35:21;;;;;;;1.23;0.08;;;2.50;88.40;;;;;;5055120;28;20332;-80
2023/01/17 03:37:49;;;;;;;1.67;0.20;;;2.50;88.40;;;;;;5042686;28;20586;-79
2023/01/17 03:40:17;;;;;;;3.63;0.30;;;2.50;88.40;;;;;;5055652;28;20053;-80
2023/01/17 03:42:44;;;;;;;2.58;0.30;;;2.50;88.40;;;;;;5054758;28;20056;-80
2023/01/17 03:45:11;;;;;;;0.50;0.10;;;2.50;88.20;;;;;;5028860;28;20141;-80
2023/01/17 03:47:38;;;;;;;1.00;0.10;;;2.50;88.20;;;;;;5043742;28;20309;-79
2023/01/17 03:50:06;;;;;;;1.17;0.10;;;2.50;88.10;;;;;;5026544;28;20129;-79
2023/01/17 03:52:33;;;;;;;5.18;0.30;;;2.50;88.20;;;;;;5044712;28;20095;-79
2023/01/17 03:55:02;;;;;;;1.70;0.10;;;2.40;88.20;;;;;;5042936;28;20088;-79
2023/01/17 03:57:29;;;;;;;0.73;0.00;;;2.40;88.40;;;;;;5039574;28;20108;-79
2023/01/17 03:59:57;;;;;;;2.60;0.30;;;2.40;88.30;;;;;;5044060;28;20320;-80
2023/01/17 04:02:24;;;;;;;0.77;0.10;;;2.40;88.20;;;;;;5047548;28;21104;-79
2023/01/17 04:04:51;;;;;;;2.22;0.28;;;2.40;87.80;;;;;;5042852;28;20169;-79
2023/01/17 04:07:19;;;;;;;3.28;0.43;;;2.40;87.40;;;;;;5043269;28;20050;-80
2023/01/17 04:09:46;;;;;;;7.10;1.27;;;2.40;87.20;;;;;;5042739;28;20058;-79
2023/01/17 04:12:14;;;;;;;3.80;0.55;;;2.40;87.10;;;;;;5028551;28;20274;-80
2023/01/17 04:14:41;;;;;;;3.75;0.30;;;2.50;87.00;;;;;;5036123;28;20073;-80
2023/01/17 04:17:11;;;;;;;2.85;0.20;;;2.40;86.90;;;;;;5043785;28;20487;-79
2023/01/17 04:19:38;;;;;;;4.28;0.35;;;2.40;87.00;;;;;;5042566;28;20120;-79
2023/01/17 04:22:05;;;;;;;4.33;0.20;;;2.40;87.10;;;;;;5042256;28;20045;-79
2023/01/17 04:24:32;;;;;;;2.83;0.20;;;2.50;87.10;;;;;;5026265;28;21155;-80
2023/01/17 04:26:59;;;;;;;3.97;0.40;;;2.50;87.30;;;;;;5036856;28;20475;-79
2023/01/17 04:29:27;;;;;;;1.85;0.15;;;2.50;87.50;;;;;;5039562;28;20056;-80
2023/01/17 04:31:54;;;;;;;3.28;0.10;;;2.50;87.60;;;;;;5039045;28;20041;-79
2023/01/17 04:34:21;;;;;;;6.63;0.40;;;2.50;87.60;;;;;;5046881;28;20343;-80
2023/01/17 04:36:48;;;;;;;4.25;0.20;;;2.50;87.50;;;;;;5040828;28;20255;-79
2023/01/17 04:39:15;;;;;;;1.75;0.20;;;2.50;87.50;;;;;;5032427;28;20069;-80
2023/01/17 04:41:42;;;;;;;3.10;0.32;;;2.50;87.40;;;;;;5049627;28;20065;-80
2023/01/17 04:44:09;;;;;;;3.47;0.20;;;2.50;87.30;;;;;;5045394;28;20140;-79
2023/01/17 04:46:37;;;;;;;3.23;0.20;;;2.40;87.30;;;;;;5029426;28;20534;-80
2023/01/17 04:49:04;;;;;;;3.42;0.35;;;2.40;87.30;;;;;;5031208;28;20325;-80
2023/01/17 04:51:31;;;;;;;6.00;0.68;;;2.40;87.20;;;;;;5029302;28;20642;-80
2023/01/17 04:53:58;;;;;;;2.08;0.20;;;2.40;86.90;;;;;;5035761;28;20063;-79
2023/01/17 04:56:25;;;;;;;3.03;0.20;;;2.40;86.80;;;;;;5045767;28;20061;-79
2023/01/17 04:58:52;;;;;;;4.50;0.30;;;2.40;86.60;;;;;;5046016;28;20180;-80
2023/01/17 05:01:19;;;;;;;3.25;0.30;;;2.40;86.30;;;;;;5062600;28;20354;-80
2023/01/17 05:03:47;;;;;;;5.70;0.40;;;2.40;86.40;;;;;;5039310;28;20074;-79
2023/01/17 05:06:14;;;;;;;2.88;0.10;;;2.40;86.00;;;;;;5045934;28;20153;-79
2023/01/17 05:08:41;;;;;;;4.10;0.28;;;2.40;85.90;;;;;;5028912;28;20054;-79
2023/01/17 05:11:08;;;;;;;2.47;0.30;;;2.30;85.90;;;;;;5045705;28;20056;-80
2023/01/17 05:13:35;;;;;;;2.55;0.20;;;2.30;85.80;;;;;;5029355;28;20281;-79
2023/01/17 05:16:02;;;;;;;4.25;0.20;;;2.30;85.70;;;;;;5041595;28;20412;-79
2023/01/17 05:18:29;;;;;;;2.58;0.20;;;2.30;85.50;;;;;;5058027;28;20128;-80
2023/01/17 05:21:02;;;;;;;1.90;0.13;;;2.20;85.60;;;;;;5041353;28;20061;-79
2023/01/17 05:23:29;;;;;;;3.90;0.30;;;2.20;85.40;;;;;;5043693;28;20131;-80
2023/01/17 05:25:56;;;;;;;2.65;0.13;;;2.20;85.40;;;;;;5032185;28;20340;-80
2023/01/17 05:28:23;;;;;;;5.03;0.30;;;2.20;85.30;;;;;;5055214;28;20149;-79
2023/01/17 05:30:50;;;;;;;4.03;0.15;;;2.20;85.50;;;;;;5028819;28;20520;-80
2023/01/17 05:33:16;;;;;;;10.75;0.43;;;2.10;85.50;;;;;;5048852;28;20132;-80
2023/01/17 05:35:43;;;;;;;2.83;0.47;;;2.10;85.60;;;;;;5025296;28;20186;-80
2023/01/17 05:38:12;;;;;;;3.33;0.38;;;2.10;85.70;;;;;;5040029;28;20360;-79
2023/01/17 05:40:39;;;;;;;4.93;0.30;;;2.10;85.80;;;;;;5053766;28;20345;-79
2023/01/17 05:43:05;;;;;;;5.93;0.25;;;2.10;85.90;;;;;;5060882;28;20058;-80
2023/01/17 05:45:33;;;;;;;3.95;0.22;;;2.10;86.00;;;;;;5044015;28;20053;-80
2023/01/17 05:48:01;;;;;;;3.13;0.20;;;2.10;85.80;;;;;;5047547;28;20176;-80
2023/01/17 05:50:30;;;;;;;4.57;0.40;;;2.10;85.80;;;;;;5045244;28;20364;-80
2023/01/17 05:52:59;;;;;;;4.85;0.70;;;2.10;85.70;;;;;;5037994;28;20157;-80
2023/01/17 05:55:29;;;;;;;4.72;0.30;;;2.10;85.60;;;;;;5027861;28;20046;-80
2023/01/17 05:57:56;;;;;;;3.15;0.30;;;2.10;85.50;;;;;;5038370;28;20120;-80
2023/01/17 06:00:24;;;;;;;4.60;0.33;;;2.20;85.40;;;;;;5049692;28;20769;-79
2023/01/17 06:02:53;;;;;;;5.88;0.30;;;2.20;85.20;;;;;;5047368;28;20265;-79
2023/01/17 06:05:21;;;;;;;4.53;0.20;;;2.20;85.10;;;;;;5012277;28;20636;-79
2023/01/17 06:07:48;;;;;;;3.40;0.22;;;2.20;85.10;;;;;;5045802;28;20559;-80
2023/01/17 06:10:19;;;;;;;6.03;0.30;;;2.20;85.10;;;;;;5045097;28;20050;-79
2023/01/17 06:12:48;;;;;;;4.43;0.30;;;2.20;85.10;;;;;;5028429;28;20042;-80
2023/01/17 06:15:17;;;;;;;4.10;0.30;;;2.20;84.80;;;;;;5033232;28;20288;-79
2023/01/17 06:17:44;;;;;;;3.20;0.20;;;2.20;84.80;;;;;;5048508;28;20045;-80
2023/01/17 06:20:13;;;;;;;7.38;0.35;;;2.20;84.40;;;;;;5064280;28;20188;-80
2023/01/17 06:22:40;;;;;;;5.45;0.30;;;2.10;84.40;;;;;;5057489;28;20073;-79
2023/01/17 06:25:08;;;;;;;4.17;0.23;;;2.10;84.50;;;;;;5045108;28;20132;-80
2023/01/17 06:27:36;;;;;;;3.83;0.20;;;2.10;84.60;;;;;;5041018;28;20323;-80
2023/01/17 06:30:05;;;;;;;2.58;0.20;;;2.10;84.60;;;;;;5057207;28;20590;-79
2023/01/17 06:32:33;;;;;;;5.10;0.32;;;2.10;84.40;;;;;;5028592;28;20085;-80
2023/01/17 06:34:59;;;;;;;4.43;0.32;;;2.10;84.40;;;;;;5036839;28;20057;-80
2023/01/17 06:37:27;;;;;;;3.97;0.20;;;2.10;84.30;;;;;;5044341;28;20125;-80
2023/01/17 06:39:54;;;;;;;4.47;0.30;;;2.10;84.00;;;;;;5038094;28;20309;-80
2023/01/17 06:42:21;;;;;;;5.15;0.47;;;2.00;83.80;;;;;;5054214;28;20049;-80
2023/01/17 06:44:48;;;;;;;2.55;0.30;;;2.10;83.50;;;;;;5062412;22;20070;-80
2023/01/17 06:47:16;;;;;;;1.40;0.10;;;2.00;83.40;;;;;;5059686;28;20126;-79
2023/01/17 06:49:43;;;;;;;5.17;0.30;;;2.00;82.60;;;;;;5036836;28;20058;-81
2023/01/17 06:52:11;;;;;;;2.10;0.10;;;2.00;81.90;;;;;;5063247;28;20332;-81
2023/01/17 06:54:38;;;;;;;1.35;0.25;;;2.00;81.50;;;;;;5040833;28;20057;-80
2023/01/17 06:57:05;;;;;;;2.78;0.40;;;2.00;81.30;;;;;;5041136;28;20078;-81
2023/01/17 06:59:31;;;;;;;4.88;0.25;;;2.00;81.40;;;;;;5057108;28;20634;-81
2023/01/17 07:01:59;;;;;;;2.23;0.17;;;1.90;81.00;;;;;;5042795;28;20049;-81
2023/01/17 07:04:27;;;;;;;2.10;0.10;;;2.00;80.80;;;;;;5036918;28;20328;-81
2023/01/17 07:06:54;;;;;;;2.33;0.10;;;1.90;81.00;;;;;;5041827;28;20056;-80
2023/01/17 07:09:21;;;;;;;4.13;0.20;;;1.90;81.20;;;;;;5040653;28;20138;-80
2023/01/17 07:11:48;;;;;;;2.22;0.40;;;1.90;81.40;;;;;;5039274;28;20313;-81
2023/01/17 07:14:15;;;;;;;2.77;0.20;;;1.90;81.50;;;;;;5042191;28;20501;-81
2023/01/17 07:16:44;;;;;;;3.05;0.20;;;1.90;81.60;;;;;;5038116;28;21008;-81
2023/01/17 07:19:12;;;;;;;3.33;0.30;;;1.90;81.70;;;;;;5042039;28;20058;-80
2023/01/17 07:21:40;;;;;;;5.70;0.40;;;1.90;81.80;;;;;;5041746;28;20056;-80
2023/01/17 07:24:08;;;;;;;2.03;0.10;;;1.90;81.90;;;;;;5053450;28;20130;-80
2023/01/17 07:26:36;;;;;;;2.37;0.20;;;1.90;81.90;;;;;;5036467;28;20100;-81
2023/01/17 07:29:04;;;;;;;3.72;0.20;;;1.90;81.80;;;;;;5045841;28;20256;-81
2023/01/17 07:31:34;;;;;;;2.97;0.30;;;1.90;81.90;;;;;;5044187;28;20057;-81
2023/01/17 07:34:01;;;;;;;5.25;0.40;;;1.80;82.00;;;;;;5037428;28;20503;-80
2023/01/17 07:36:27;;;;;;;2.75;0.13;;;1.80;82.10;;;;;;5037993;28;20128;-80
2023/01/17 07:38:57;;;;;;;6.03;0.20;;;1.80;82.40;;;;;;5038791;28;20050;-80
2023/01/17 07:41:24;;;;;;;3.72;0.30;;;1.80;82.60;;;;;;5041397;28;20735;-79
2023/01/17 07:43:51;;;;;;;4.10;0.22;;;1.80;82.80;;;;;;5023387;28;20131;-80
2023/01/17 07:46:18;;;;;;;4.82;0.20;;;1.80;82.90;;;;;;5041702;28;20546;-80
2023/01/17 07:48:45;;;;;;;3.97;0.30;;;1.80;83.00;;;;;;5038538;28;20062;-81
2023/01/17 07:51:12;;;;;;;5.40;0.40;;;1.80;83.10;;;;;;5039711;28;20107;-79
2023/01/17 07:53:39;;;;;;;4.45;0.30;;;1.80;83.20;;;;;;5045401;28;20283;-79
2023/01/17 07:56:08;;;;;;;4.20;0.20;;;1.80;83.30;;;;;;5028399;28;20045;-81
2023/01/17 07:58:35;;;;;;;4.60;0.25;;;1.80;83.40;;;;;;5028392;28;20060;-80
2023/01/17 08:01:03;;;;;;;5.20;0.38;;;1.80;83.60;;;;;;5042681;28;20482;-80
2023/01/17 08:03:31;;;;;;;3.23;0.20;;;1.90;83.70;;;;;;5039266;28;20654;-79
2023/01/17 08:05:58;;;;;;;4.28;0.20;;;1.80;83.70;;;;;;5040612;28;20291;-79
2023/01/17 08:08:25;;;;;;;6.07;0.28;;;1.80;83.80;;;;;;5037404;28;20097;-79
2023/01/17 08:10:52;;;;;;;2.45;0.20;;;1.80;83.90;;;;;;5040055;28;20053;-81
2023/01/17 08:13:21;;;;;;;4.13;0.30;;;1.90;84.00;;;;;;5034665;28;20157;-79
2023/01/17 08:15:48;;;;;;;4.17;0.20;;;1.90;84.00;;;;;;5044711;28;20060;-79
2023/01/17 08:18:15;;;;;;;1.83;0.10;;;1.80;84.00;;;;;;5060840;28;20241;-80
2023/01/17 08:20:43;;;;;;;5.38;0.73;;;1.80;83.70;;;;;;5040728;28;20184;-80
2023/01/17 08:23:10;;;;;;;5.88;0.40;;;1.90;83.40;;;;;;5041971;28;20057;-79
2023/01/17 08:25:38;;;;;;;3.33;0.40;;;1.90;83.30;;;;;;5039855;28;20136;-79
2023/01/17 08:28:05;;;;;;;2.63;0.20;;;1.80;83.50;;;;;;5042161;28;20560;-80
2023/01/17 08:30:34;;;;;;;4.35;0.40;;;1.90;83.50;;;;;;5041870;28;20277;-81
2023/01/17 08:33:01;;;;;;;4.03;0.40;;;1.80;83.50;;;;;;5039301;28;20085;-79
2023/01/17 08:35:28;;;;;;;5.05;0.20;;;1.90;83.50;;;;;;5039056;28;20182;-80
2023/01/17 08:37:56;;;;;;;3.15;0.30;;;1.90;83.50;;;;;;5036848;28;20389;-82
2023/01/17 08:40:24;;;;;;;2.80;0.20;;;1.90;83.50;;;;;;5036454;28;21128;-80
2023/01/17 08:42:54;;;;;;;4.00;0.20;;;1.90;83.40;;;;;;5020080;28;21393;-79
2023/01/17 08:45:21;;;;;;;2.80;0.17;;;1.90;83.50;;;;;;5037674;28;20053;-79
2023/01/17 08:47:50;;;;;;;5.22;0.40;;;1.90;83.60;;;;;;5041001;28;20049;-80
2023/01/17 08:50:20;;;;;;;3.28;0.30;;;1.90;83.70;;;;;;5037744;28;20454;-80
2023/01/17 08:52:48;;;;;;;4.20;0.33;;;1.90;83.80;;;;;;5040888;28;20609;-80
2023/01/17 08:55:15;;;;;;;5.05;0.32;;;1.90;83.90;;;;;;5052185;28;20463;-80
2023/01/17 08:57:42;;;;;;;5.05;0.40;;;1.90;84.00;;;;;;5036129;28;20133;-80
2023/01/17 09:00:10;;;;;;;4.55;0.55;;;1.90;84.10;;;;;;5034941;28;20072;-81
2023/01/17 09:02:37;;;;;;;2.63;0.22;;;2.00;84.20;;;;;;5040173;28;20607;-81
2023/01/17 09:05:06;;;;;;;5.73;0.40;;;2.00;84.30;;;;;;5051575;28;20049;-80
2023/01/17 09:07:34;;;;;;;4.53;0.40;;;2.00;84.40;;;;;;5039403;28;20248;-80
2023/01/17 09:10:00;;;;;;;5.75;0.40;;;2.00;84.40;;;;;;5045755;28;20708;-82
2023/01/17 09:12:31;;;;;;;4.82;0.60;;;2.00;84.50;;;;;;5044705;28;20053;-81
2023/01/17 09:14:58;;;;;;;2.13;0.40;;;2.00;84.60;;;;;;5044640;28;20060;-80
2023/01/17 09:17:25;;;;;;;4.23;0.43;;;2.00;84.60;;;;;;5040708;28;20159;-80
2023/01/17 09:19:52;;;;;;;7.07;0.57;;;2.00;84.60;;;;;;5036064;28;20301;-80
2023/01/17 09:22:20;;;;;;;4.25;0.60;;;2.00;84.80;;;;;;5028941;28;20053;-80
2023/01/17 09:24:47;;;;;;;4.60;0.73;;;2.00;84.80;;;;;;5019005;28;20053;-80
2023/01/17 09:27:14;;;;;;;3.22;0.50;;;2.00;85.00;;;;;;5042533;28;20050;-80
2023/01/17 09:29:41;;;;;;;3.20;0.40;;;2.10;85.00;;;;;;5030307;28;20053;-80
2023/01/17 09:32:08;;;;;;;3.53;0.50;;;2.10;85.00;;;;;;5041603;28;20257;-80
2023/01/17 09:34:35;;;;;;;5.10;0.75;;;2.10;85.00;;;;;;5037663;28;20049;-79
2023/01/17 09:37:01;;;;;;;5.72;0.70;;;2.10;85.10;;;;;;5041853;28;20531;-81
2023/01/17 09:39:30;;;;;;;5.03;0.95;;;2.20;85.00;;;;;;5041880;28;20369;-80
2023/01/17 09:42:02;;;;;;;4.80;0.90;;;2.20;85.10;;;;;;5043475;28;20053;-79
2023/01/17 09:44:38;;;;;;;3.72;0.60;;;2.20;85.10;;;;;;5056407;28;20403;-80
2023/01/17 09:47:15;;;;;;;2.65;0.43;;;2.30;84.90;;;;;;5040800;28;20112;-80
2023/01/17 09:49:44;;;;;;;4.68;0.90;;;2.30;84.90;;;;;;5027678;28;20141;-81
2023/01/17 09:52:14;;;;;;;5.15;0.77;;;2.30;84.90;;;;;;5036834;28;20050;-79
2023/01/17 09:54:44;;;;;;;4.07;0.73;;;2.30;84.90;;;;;;5038304;28;20132;-80
2023/01/17 09:57:21;;;;;;;5.93;0.90;;;2.40;84.80;;;;;;5047433;28;20259;-80
2023/01/17 09:59:55;;;;;;;4.72;0.60;;;2.40;84.80;;;;;;5047896;28;20773;-79
2023/01/17 10:02:43;;;;;;;7.05;0.85;;;2.40;84.70;;;;;;5039760;28;20052;-80
2023/01/17 10:05:28;;;;;;;4.30;0.63;;;2.50;84.60;;;;;;5035080;28;20053;-79
2023/01/17 10:08:15;;;;;;;4.77;0.43;;;2.50;84.10;;;;;;5038720;28;20514;-79
2023/01/17 10:10:54;;;;;;;6.07;0.85;;;2.50;84.10;;;;;;5050270;28;20344;-79
2023/01/17 10:13:36;;;;;;;4.95;0.85;;;2.50;84.10;;;;;;5028709;28;20864;-80
2023/01/17 10:16:19;;;;;;;3.78;0.60;;;2.60;83.90;;;;;;5030525;28;20060;-79
2023/01/17 10:19:08;;;;;;;4.18;0.60;;;2.70;83.50;;;;;;5014462;28;20045;-79
2023/01/17 10:21:49;;;;;;;3.83;0.70;;;2.70;83.50;;;;;;5033037;28;20128;-80
2023/01/17 10:24:42;;;;;;;4.88;1.00;;;2.80;83.30;;;;;;5048435;28;20285;-79
2023/01/17 10:27:19;;;;;;;8.80;0.98;;;2.80;83.40;;;;;;5049686;28;20136;-79
2023/01/17 10:29:48;;;;;;;5.20;0.75;;;2.80;83.30;;;;;;5049421;28;20507;-80
2023/01/17 10:32:16;;;;;;;3.08;0.60;;;2.90;83.20;;;;;;5048276;28;20053;-80
2023/01/17 10:34:47;;;;;;;3.43;0.50;;;2.90;82.90;;;;;;5031954;28;20056;-79
2023/01/17 10:37:20;;;;;;;3.40;0.50;;;3.00;83.00;;;;;;5038956;28;20274;-79
2023/01/17 10:39:50;;;;;;;6.75;0.60;;;3.00;82.70;;;;;;5011955;28;20141;-79
2023/01/17 10:42:23;;;;;;;3.65;0.68;;;3.10;82.50;;;;;;5033849;28;20961;-79
2023/01/17 10:44:55;;;;;;;5.07;0.70;;;3.10;82.20;;;;;;5044445;28;20056;-79
2023/01/17 10:47:26;;;;;;;5.13;0.70;;;3.10;82.30;;;;;;5017544;28;20136;-79
2023/01/17 10:49:57;;;;;;;3.95;0.60;;;3.10;82.30;;;;;;5027842;28;20250;-79
2023/01/17 10:52:34;;;;;;;5.80;0.55;;;3.20;82.20;;;;;;5050230;28;20503;-80
2023/01/17 10:55:15;;;;;;;4.47;0.88;;;3.30;81.90;;;;;;5041294;28;20499;-79
2023/01/17 10:57:45;;;;;;;3.50;0.40;;;3.30;82.10;;;;;;5028089;28;20166;-79
2023/01/17 11:00:25;;;;;;;6.20;0.63;;;3.30;82.10;;;;;;5034688;28;20601;-79
2023/01/17 11:02:52;;;;;;;5.38;0.68;;;3.40;82.00;;;;;;5049637;28;20343;-80
2023/01/17 11:05:24;;;;;;;4.78;0.50;;;3.50;82.20;;;;;;5028239;28;20056;-79
2023/01/17 11:08:00;;;;;;;4.43;0.70;;;3.50;81.60;;;;;;5027899;28;20056;-78
2023/01/17 11:10:39;;;;;;;5.57;0.57;;;3.50;81.10;;;;;;5011588;28;20054;-79
2023/01/17 11:13:24;;;;;;;5.00;0.73;;;3.60;81.10;;;;;;5011047;28;20069;-79
2023/01/17 11:15:56;;;;;;;6.47;0.60;;;3.60;81.20;;;;;;5027667;28;20261;-79
2023/01/17 11:18:27;;;;;;;4.28;0.65;;;3.70;81.10;;;;;;5027540;28;20599;-80
2023/01/17 11:21:10;;;;;;;4.82;0.63;;;3.80;80.70;;;;;;5027988;28;20061;-78
2023/01/17 11:23:40;;;;;;;3.58;0.50;;;3.80;80.70;;;;;;5037477;28;20065;-80
2023/01/17 11:26:10;;;;;;;4.20;0.80;;;3.90;80.50;;;;;;5045383;28;20050;-79
2023/01/17 11:28:40;;;;;;;4.68;0.70;;;3.90;80.60;;;;;;5042457;28;20277;-79
2023/01/17 11:31:24;;;;;;;4.80;0.93;;;3.90;80.20;;;;;;5028161;28;20054;-80
2023/01/17 11:34:06;;;;;;;5.25;0.90;;;4.00;80.30;;;;;;5041920;28;20124;-79
2023/01/17 11:36:33;;;;;;;6.50;1.02;;;4.00;79.60;;;;;;5047052;28;20045;-79
2023/01/17 11:39:03;;;;;;;3.87;0.70;;;4.10;79.50;;;;;;5045450;28;20052;-79
2023/01/17 11:41:34;;;;;;;3.88;0.85;;;4.10;79.60;;;;;;5034993;28;20335;-77
2023/01/17 11:44:04;;;;;;;3.88;0.80;;;4.20;79.50;;;;;;5011791;28;20542;-79
2023/01/17 11:46:31;;;;;;;6.85;0.90;;;4.30;78.50;;;;;;5017999;28;20049;-79
2023/01/17 11:49:01;;;;;;;7.28;0.60;;;4.30;78.40;;;;;;5046891;28;20593;-78
2023/01/17 11:51:31;;;;;;;6.27;1.17;;;4.30;78.50;;;;;;5027152;28;20145;-78
2023/01/17 11:54:12;;;;;;;3.97;0.70;;;4.40;78.30;;;;;;5010935;28;20341;-79
2023/01/17 11:56:42;;;;;;;6.80;1.00;;;4.50;77.30;;;;;;5034295;28;20045;-81
2023/01/17 11:59:30;;;;;;;6.55;0.95;;;4.50;77.70;;;;;;5045294;28;20736;-80
2023/01/17 12:02:41;;;;;;;4.40;0.93;;;4.50;78.00;;;;;;5043592;28;20053;-80
2023/01/17 12:05:22;;;;;;;5.20;0.90;;;4.50;77.80;;;;;;5010186;28;20053;-79
2023/01/17 12:07:59;;;;;;;6.10;0.80;;;4.60;76.80;;;;;;5041792;28;20272;-79
2023/01/17 12:10:35;;;;;;;5.22;0.77;;;4.60;76.40;;;;;;5026737;28;20064;-80
2023/01/17 12:19:03;;;;;;;4.67;1.20;;;4.70;75.30;;;;;;5025218;28;20998;-78
2023/01/17 12:21:40;;;;;;;4.28;0.60;;;4.70;75.20;;;;;;5036101;28;20292;-79
2023/01/17 12:24:34;;;;;;;5.82;1.13;;;4.70;75.10;;;;;;5046970;28;20136;-78
2023/01/17 12:27:10;;;;;;;3.78;0.70;;;4.70;75.70;;;;;;5044295;28;21040;-79
2023/01/17 12:29:49;;;;;;;3.33;0.70;;;4.70;75.60;;;;;;5026714;28;20865;-78
2023/01/17 12:32:45;;;;;;;4.27;0.80;;;4.80;75.20;;;;;;5027840;28;20463;-78
2023/01/17 12:35:16;;;;;;;3.30;0.60;;;4.90;75.70;;;;;;5038330;28;20392;-81
2023/01/17 12:37:45;;;;;;;5.60;1.00;;;4.90;75.30;;;;;;5030248;28;20149;-79
2023/01/17 12:40:22;;;;;;;4.07;0.80;;;5.00;75.40;;;;;;5011348;28;20049;-79
2023/01/17 12:42:55;;;;;;;3.30;0.60;;;5.00;74.50;;;;;;5034159;28;20464;-81
2023/01/17 12:45:29;;;;;;;5.17;0.70;;;5.00;74.40;;;;;;5034901;28;20849;-78
2023/01/17 12:48:02;;;;;;;3.92;0.70;;;5.00;74.00;;;;;;5020395;28;20264;-79
2023/01/17 12:50:35;;;;;;;4.13;0.75;;;5.00;73.60;;;;;;5026121;28;20141;-79
2023/01/17 12:53:10;;;;;;;5.70;0.90;;;5.00;74.10;;;;;;5045265;28;20057;-79
2023/01/17 12:55:43;;;;;;;6.40;1.10;;;5.00;74.00;;;;;;5048336;28;20108;-78
2023/01/17 12:58:18;;;;;;;5.97;1.07;;;5.00;74.30;;;;;;5050353;28;20124;-78
2023/01/17 13:00:49;;;;;;;5.25;1.00;;;5.00;74.70;;;;;;5048519;28;20415;-78
2023/01/17 13:03:25;;;;;;;5.18;0.70;;;5.00;73.10;;;;;;5030218;28;20050;-78
2023/01/17 13:05:54;;;;;;;5.32;1.10;;;5.10;71.90;;;;;;5029338;28;20163;-78
2023/01/17 13:08:26;;;;;;;3.58;0.65;;;5.10;72.30;;;;;;5030088;28;20190;-79
2023/01/17 13:10:57;;;;;;;4.37;0.80;;;5.00;72.50;;;;;;5048940;28;20123;-79
2023/01/17 13:13:26;;;;;;;4.53;0.80;;;5.00;71.60;;;;;;5049984;28;20289;-79
2023/01/17 13:15:56;;;;;;;5.78;0.95;;;5.00;72.50;;;;;;5050926;28;20049;-78
2023/01/17 13:18:28;;;;;;;4.93;0.70;;;5.00;72.70;;;;;;5050326;28;20073;-82
2023/01/17 13:21:04;;;;;;;3.88;0.68;;;5.00;71.60;;;;;;5071883;22;20050;-79
2023/01/17 13:23:43;;;;;;;5.00;0.70;;;5.00;71.80;;;;;;5047912;28;20204;-79
2023/01/17 13:26:19;;;;;;;2.28;0.40;;;5.00;71.20;;;;;;5047120;28;20311;-80
2023/01/17 13:28:51;;;;;;;4.38;0.70;;;5.00;71.40;;;;;;5047293;28;20513;-80
2023/01/17 13:31:33;;;;;;;5.43;0.95;;;5.00;71.00;;;;;;5047498;28;20519;-79
2023/01/17 13:34:34;;;;;;;4.90;0.70;;;5.00;71.50;;;;;;5047125;28;20049;-78
2023/01/17 13:37:20;;;;;;;6.90;0.70;;;5.00;72.10;;;;;;5045296;28;20136;-81
2023/01/17 13:40:17;;;;;;;3.60;0.50;;;5.00;71.20;;;;;;5022293;28;20293;-81
2023/01/17 13:42:54;;;;;;;4.22;0.50;;;4.90;70.50;;;;;;5040054;28;20140;-79
2023/01/17 13:45:26;;;;;;;4.65;0.60;;;4.90;70.00;;;;;;5040544;28;20050;-80
2023/01/17 13:47:53;;;;;;;4.47;0.40;;;4.90;69.40;;;;;;5034576;28;20161;-79
2023/01/17 13:50:47;;;;;;;2.97;0.33;;;4.80;67.10;;;;;;5026365;28;20050;-81
2023/01/17 13:53:55;;;;;;;3.15;0.40;;;4.70;68.00;;;;;;5046637;28;20346;-81
2023/01/17 13:56:35;;;;;;;3.70;0.45;;;4.70;67.70;;;;;;5045389;28;20050;-82
2023/01/17 13:59:27;;;;;;;4.28;0.45;;;4.70;68.00;;;;;;5047335;28;20132;-81
2023/01/17 14:01:55;;;;;;;3.78;0.40;;;4.70;67.10;;;;;;5035524;28;20057;-81
2023/01/17 14:04:23;;;;;;;2.13;0.20;;;4.70;67.20;;;;;;5045091;28;20144;-80
2023/01/17 14:07:02;;;;;;;5.32;0.30;;;4.70;67.70;;;;;;5043192;28;20276;-81
2023/01/17 14:09:42;;;;;;;1.65;0.10;;;4.70;67.60;;;;;;5038599;28;20054;-80
2023/01/17 14:12:32;;;;;;;3.83;0.43;;;4.70;67.50;;;;;;5042597;28;20475;-80
2023/01/17 14:15:01;;;;;;;3.80;0.40;;;4.70;67.70;;;;;;5042611;28;20049;-82
2023/01/17 14:18:07;;;;;;;4.57;0.63;;;4.70;68.00;;;;;;5043811;28;20076;-80
2023/01/17 14:20:50;;;;;;;6.13;0.60;;;4.70;68.00;;;;;;5042082;28;20273;-80
2023/01/17 14:23:25;;;;;;;7.15;0.52;;;4.70;68.30;;;;;;5025507;28;20054;-80
2023/01/17 14:25:53;;;;;;;4.00;0.63;;;4.80;68.40;;;;;;5040590;28;20070;-80
2023/01/17 14:28:24;;;;;;;4.18;0.80;;;4.80;68.50;;;;;;5039864;28;20055;-80
2023/01/17 14:30:55;;;;;;;5.77;0.60;;;4.80;69.20;;;;;;5026181;28;20049;-80
2023/01/17 14:33:27;;;;;;;3.55;0.77;;;4.90;69.30;;;;;;5044058;28;20726;-80
2023/01/17 14:35:57;;;;;;;6.88;0.70;;;4.90;68.70;;;;;;5041180;28;20054;-80
2023/01/17 14:38:27;;;;;;;3.85;0.88;;;4.90;68.80;;;;;;5029163;28;20053;-79
2023/01/17 14:40:57;;;;;;;3.17;0.60;;;4.90;69.40;;;;;;5029487;28;20829;-79
2023/01/17 14:43:27;;;;;;;4.43;0.60;;;4.90;69.50;;;;;;5045582;28;20164;-79
2023/01/17 14:45:59;;;;;;;5.90;0.80;;;4.90;69.50;;;;;;5030483;28;20319;-79
2023/01/17 14:48:27;;;;;;;4.07;0.65;;;4.90;68.70;;;;;;5048862;28;20063;-79